Time;durP1;ratioP1;P1;durP2;ratioP2;P2;SDS_P1;SDS_P2;PMS_P1;PMS_P2;Temp;Humidity;BMP_temperature;BMP_pressure;BME280_temperature;BME280_humidity;BME280_pressure;Samples;Min_cycle;Max_cycle;Signal;HPM_P1;HPM_P2
2023/01/09 00:00:00;;;;;;;0.80;0.32;;;18.30;73.00;;;;;;5025814;28;45194;-73
2023/01/09 00:02:27;;;;;;;1.17;0.40;;;18.40;73.10;;;;;;5026063;28;47319;-73
2023/01/09 00:04:54;;;;;;;0.45;0.30;;;18.30;73.20;;;;;;5025789;28;45238;-73
2023/01/09 00:07:22;;;;;;;0.80;0.35;;;18.30;73.10;;;;;;5027665;28;45159;-73
2023/01/09 00:13:11;;;;;;;0.70;0.30;;;18.30;73.30;;;;;;5026407;28;45333;-73
2023/01/09 00:15:39;;;;;;;0.60;0.17;;;18.40;73.10;;;;;;5028776;28;45241;-73
2023/01/09 00:18:06;;;;;;;0.45;0.30;;;18.30;73.10;;;;;;5029299;28;45322;-73
2023/01/09 00:20:32;;;;;;;0.47;0.25;;;18.30;73.00;;;;;;5029356;28;45171;-73
2023/01/09 00:23:01;;;;;;;0.22;0.20;;;18.30;73.10;;;;;;5028831;28;46680;-73
2023/01/09 00:25:28;;;;;;;0.75;0.30;;;18.30;73.00;;;;;;5028429;28;45320;-73
2023/01/09 00:27:54;;;;;;;0.38;0.30;;;18.30;73.00;;;;;;5029102;28;45271;-73
2023/01/09 00:30:21;;;;;;;2.38;0.25;;;18.30;72.90;;;;;;5028924;28;45623;-73
2023/01/09 00:36:38;;;;;;;0.30;0.15;;;18.40;73.10;;;;;;5025839;28;45273;-73
2023/01/09 00:39:06;;;;;;;0.40;0.20;;;18.40;73.00;;;;;;5028742;28;45477;-73
2023/01/09 00:41:58;;;;;;;0.52;0.20;;;18.40;73.10;;;;;;5028647;28;45519;-73
2023/01/09 00:44:29;;;;;;;0.50;0.30;;;18.40;73.10;;;;;;5028879;28;46903;-73
2023/01/09 00:47:02;;;;;;;0.40;0.35;;;18.40;73.10;;;;;;5028487;28;45172;-73
2023/01/09 00:49:32;;;;;;;0.10;0.10;;;18.40;73.10;;;;;;5028863;28;45368;-73
2023/01/09 00:51:59;;;;;;;0.20;0.15;;;18.30;73.00;;;;;;5028946;28;45538;-73
2023/01/09 00:54:30;;;;;;;0.57;0.30;;;18.40;73.10;;;;;;5028151;28;46662;-73
2023/01/09 00:56:58;;;;;;;0.45;0.30;;;18.30;73.10;;;;;;5028244;28;45578;-73
2023/01/09 00:59:24;;;;;;;0.32;0.10;;;18.40;73.20;;;;;;5028690;28;45135;-73
2023/01/09 01:01:51;;;;;;;0.20;0.20;;;18.30;72.90;;;;;;5028752;28;45528;-72
2023/01/09 01:09:47;;;;;;;0.45;0.10;;;18.40;73.10;;;;;;5025522;28;45206;-73
2023/01/09 01:12:14;;;;;;;2.47;0.22;;;18.30;73.10;;;;;;5028767;28;45539;-73
2023/01/09 01:14:41;;;;;;;0.10;0.10;;;18.40;73.10;;;;;;5027912;28;45248;-73
2023/01/09 01:17:08;;;;;;;0.50;0.20;;;18.30;73.00;;;;;;5028356;28;45103;-73
2023/01/09 01:19:35;;;;;;;0.20;0.20;;;18.30;73.10;;;;;;5027502;28;45237;-73
2023/01/09 01:22:02;;;;;;;0.32;0.30;;;18.30;72.90;;;;;;5028342;28;45217;-73
2023/01/09 01:24:29;;;;;;;0.30;0.30;;;18.30;73.00;;;;;;5027972;28;47301;-73
2023/01/09 01:26:58;;;;;;;0.45;0.30;;;18.40;73.00;;;;;;5028043;28;45149;-73
2023/01/09 01:29:24;;;;;;;0.20;0.20;;;18.40;73.10;;;;;;5027919;28;45096;-73
2023/01/09 01:31:52;;;;;;;0.98;0.17;;;18.40;73.10;;;;;;5028243;28;45355;-73
2023/01/09 01:34:18;;;;;;;0.08;0.08;;;18.30;73.10;;;;;;5027630;28;46243;-73
2023/01/09 01:36:45;;;;;;;0.55;0.17;;;18.30;73.10;;;;;;5027789;28;45289;-73
2023/01/09 01:39:12;;;;;;;0.20;0.20;;;18.40;73.10;;;;;;5027871;28;45193;-73
2023/01/09 01:41:39;;;;;;;0.70;0.20;;;18.30;73.10;;;;;;5028184;28;45231;-73
2023/01/09 01:44:46;;;;;;;0.22;0.20;;;18.30;73.00;;;;;;5027671;28;48268;-73
2023/01/09 01:47:17;;;;;;;0.10;0.10;;;18.40;73.10;;;;;;5027589;28;45224;-73
2023/01/09 01:49:44;;;;;;;0.15;0.10;;;18.40;73.10;;;;;;5028023;28;45090;-73
2023/01/09 01:52:11;;;;;;;0.52;0.10;;;18.40;74.20;;;;;;5027986;28;45221;-73
2023/01/09 01:54:38;;;;;;;0.10;0.10;;;18.40;73.10;;;;;;5027598;28;47549;-72
2023/01/09 01:57:06;;;;;;;0.10;0.10;;;18.30;73.00;;;;;;5027357;28;45316;-73
2023/01/09 01:59:37;;;;;;;0.40;0.10;;;18.40;73.20;;;;;;5027667;28;45347;-73
2023/01/09 02:02:04;;;;;;;0.10;0.10;;;18.40;73.30;;;;;;5027369;28;45476;-73
2023/01/09 02:04:38;;;;;;;0.10;0.10;;;18.30;73.10;;;;;;5027199;28;47403;-73
2023/01/09 02:07:07;;;;;;;0.10;0.10;;;18.30;73.10;;;;;;5027143;28;45179;-73
2023/01/09 02:09:35;;;;;;;0.15;0.15;;;18.40;73.10;;;;;;5027492;28;45056;-73
2023/01/09 02:12:01;;;;;;;1.00;0.10;;;18.40;73.20;;;;;;5027376;28;45467;-73
2023/01/09 02:14:32;;;;;;;0.20;0.17;;;18.30;73.10;;;;;;5026907;28;46637;-73
2023/01/09 02:17:09;;;;;;;0.10;0.10;;;18.30;73.10;;;;;;5027073;28;45140;-73
2023/01/09 02:20:15;;;;;;;0.57;0.10;;;18.30;73.00;;;;;;5027225;28;45271;-73
2023/01/09 02:23:01;;;;;;;0.10;0.10;;;18.40;73.10;;;;;;5027393;28;45451;-73
2023/01/09 02:25:53;;;;;;;0.25;0.20;;;18.30;72.90;;;;;;5026407;28;47537;-73
2023/01/09 02:28:52;;;;;;;0.20;0.13;;;18.30;73.10;;;;;;5024123;28;45138;-73
2023/01/09 02:31:25;;;;;;;1.15;0.20;;;18.30;72.90;;;;;;5026220;28;45262;-73
2023/01/09 02:34:00;;;;;;;0.47;0.20;;;18.40;73.20;;;;;;5026898;28;45321;-73
2023/01/09 02:36:34;;;;;;;0.10;0.10;;;18.30;73.10;;;;;;5026584;28;45473;-73
2023/01/09 02:39:23;;;;;;;0.40;0.22;;;18.30;73.10;;;;;;5027109;28;45281;-73
2023/01/09 02:41:57;;;;;;;0.43;0.20;;;18.30;73.00;;;;;;5026938;28;45305;-73
2023/01/09 02:44:25;;;;;;;0.30;0.30;;;18.30;72.80;;;;;;5027273;28;45653;-72
2023/01/09 02:47:06;;;;;;;0.52;0.20;;;18.30;73.00;;;;;;5026646;28;46555;-73
2023/01/09 02:49:36;;;;;;;0.10;0.10;;;18.30;72.80;;;;;;5026895;28;45458;-73
2023/01/09 02:52:16;;;;;;;0.40;0.20;;;18.30;74.00;;;;;;5026852;28;45061;-73
2023/01/09 02:54:54;;;;;;;0.10;0.10;;;18.30;72.90;;;;;;5026821;28;45132;-73
2023/01/09 03:00:52;;;;;;;0.20;0.20;;;18.30;73.00;;;;;;5023681;28;45316;-73
2023/01/09 03:03:26;;;;;;;0.20;0.13;;;18.30;72.90;;;;;;5026433;28;45246;-73
2023/01/09 03:05:59;;;;;;;0.10;0.10;;;18.30;73.00;;;;;;5026861;28;45312;-73
2023/01/09 03:08:31;;;;;;;0.10;0.10;;;18.30;72.80;;;;;;5026338;28;45534;-73
2023/01/09 03:11:01;;;;;;;0.52;0.22;;;18.30;72.90;;;;;;5026236;28;45222;-73
2023/01/09 03:13:32;;;;;;;0.30;0.10;;;18.30;74.00;;;;;;5026631;28;45356;-73
2023/01/09 03:16:02;;;;;;;1.00;0.17;;;18.30;72.90;;;;;;5026131;28;45139;-73
2023/01/09 03:18:32;;;;;;;0.10;0.10;;;18.30;73.10;;;;;;5026495;28;47034;-73
2023/01/09 03:20:59;;;;;;;0.38;0.20;;;18.30;72.90;;;;;;5026102;28;45096;-73
2023/01/09 03:23:26;;;;;;;0.30;0.20;;;18.30;73.00;;;;;;5025907;28;45185;-73
2023/01/09 03:25:53;;;;;;;0.22;0.20;;;18.30;72.70;;;;;;5026226;28;45178;-73
2023/01/09 03:28:26;;;;;;;0.30;0.30;;;18.30;73.00;;;;;;5025863;28;46359;-73
2023/01/09 03:30:53;;;;;;;0.28;0.15;;;18.30;72.80;;;;;;5026122;28;45373;-73
2023/01/09 03:33:20;;;;;;;0.05;0.05;;;18.30;72.90;;;;;;5025957;28;45163;-73
2023/01/09 03:35:48;;;;;;;0.17;0.17;;;18.30;72.80;;;;;;5026283;28;45149;-72
2023/01/09 03:38:15;;;;;;;0.20;0.10;;;18.30;72.80;;;;;;5025951;28;46396;-73
2023/01/09 03:40:43;;;;;;;0.65;0.10;;;18.30;72.80;;;;;;5025946;28;45307;-73
2023/01/09 03:43:10;;;;;;;0.73;0.30;;;18.30;72.70;;;;;;5025704;28;45213;-73
2023/01/09 03:45:36;;;;;;;0.80;0.32;;;18.30;72.80;;;;;;5025978;28;45461;-73
2023/01/09 03:51:26;;;;;;;0.75;0.22;;;18.30;72.90;;;;;;5022864;28;45300;-73
2023/01/09 03:53:53;;;;;;;0.10;0.10;;;18.30;72.70;;;;;;5025908;28;45142;-73
2023/01/09 03:56:20;;;;;;;0.50;0.20;;;18.30;72.80;;;;;;5025806;28;45687;-73
2023/01/09 03:58:48;;;;;;;0.68;0.13;;;18.30;72.80;;;;;;5025705;28;46325;-73
2023/01/09 04:01:15;;;;;;;1.17;0.28;;;18.30;72.80;;;;;;5025576;28;45219;-73
2023/01/09 04:03:42;;;;;;;0.20;0.13;;;18.30;72.80;;;;;;5025781;28;45081;-73
2023/01/09 04:06:09;;;;;;;0.95;0.30;;;18.30;72.70;;;;;;5025671;28;45460;-73
2023/01/09 04:08:37;;;;;;;0.68;0.30;;;18.30;72.70;;;;;;5025671;28;46496;-73
2023/01/09 04:11:04;;;;;;;0.40;0.20;;;18.30;72.70;;;;;;5025360;28;45969;-73
2023/01/09 04:13:31;;;;;;;0.65;0.30;;;18.30;72.60;;;;;;5025870;28;45171;-73
2023/01/09 04:15:58;;;;;;;0.73;0.20;;;18.30;72.60;;;;;;5025403;28;45442;-73
2023/01/09 04:18:24;;;;;;;0.13;0.10;;;18.30;72.50;;;;;;5025374;28;46883;-73
2023/01/09 04:20:51;;;;;;;0.82;0.30;;;18.30;72.60;;;;;;5025503;28;45129;-73
2023/01/09 04:23:18;;;;;;;0.13;0.13;;;18.30;72.60;;;;;;5025735;28;45381;-73
2023/01/09 04:25:46;;;;;;;0.85;0.17;;;18.30;72.60;;;;;;5025348;28;45484;-73
2023/01/09 04:28:14;;;;;;;0.20;0.20;;;18.30;72.20;;;;;;5025656;28;48103;-72
2023/01/09 04:30:41;;;;;;;0.50;0.30;;;18.30;72.20;;;;;;5025874;28;45147;-73
2023/01/09 04:36:33;;;;;;;2.53;0.15;;;18.30;71.60;;;;;;5022638;28;45138;-73
2023/01/09 04:39:00;;;;;;;0.88;0.30;;;18.30;71.60;;;;;;5025145;28;45487;-73
2023/01/09 04:44:12;;;;;;;0.32;0.20;;;18.30;71.40;;;;;;5022808;28;45106;-73
2023/01/09 04:46:39;;;;;;;0.32;0.20;;;18.30;71.10;;;;;;5025508;28;45183;-73
2023/01/09 04:52:28;;;;;;;1.15;0.35;;;18.30;70.90;;;;;;5022296;28;45305;-73
2023/01/09 04:54:54;;;;;;;0.65;0.35;;;18.30;70.70;;;;;;5027850;28;45081;-73
2023/01/09 04:57:23;;;;;;;0.43;0.28;;;18.30;71.00;;;;;;5028603;28;45123;-73
2023/01/09 04:59:50;;;;;;;0.52;0.25;;;18.30;70.80;;;;;;5028413;28;45501;-73
2023/01/09 05:02:16;;;;;;;1.75;0.47;;;18.20;70.50;;;;;;5028565;28;45168;-73
2023/01/09 05:08:06;;;;;;;0.52;0.30;;;18.20;70.50;;;;;;5025646;28;45226;-73
2023/01/09 05:10:33;;;;;;;0.75;0.20;;;18.20;70.40;;;;;;5028510;28;45178;-73
2023/01/09 05:13:01;;;;;;;0.30;0.20;;;18.30;70.10;;;;;;5028180;28;45572;-73
2023/01/09 05:15:29;;;;;;;0.43;0.30;;;18.20;70.40;;;;;;5028600;28;45301;-73
2023/01/09 05:17:56;;;;;;;0.95;0.35;;;18.20;70.30;;;;;;5028275;28;45213;-73
2023/01/09 05:20:23;;;;;;;0.65;0.25;;;18.30;70.30;;;;;;5028484;28;46692;-71
2023/01/09 05:22:49;;;;;;;0.65;0.30;;;18.20;70.40;;;;;;5027911;28;45151;-73
2023/01/09 05:25:16;;;;;;;0.70;0.20;;;18.30;70.20;;;;;;5027990;28;45230;-73
2023/01/09 05:27:45;;;;;;;1.45;0.40;;;18.20;69.90;;;;;;5028257;28;45313;-73
2023/01/09 05:30:14;;;;;;;0.40;0.22;;;18.20;69.90;;;;;;5027955;28;46624;-73
2023/01/09 05:32:40;;;;;;;0.45;0.30;;;18.20;69.70;;;;;;5027891;28;45141;-73
2023/01/09 05:35:08;;;;;;;1.05;0.30;;;18.30;69.80;;;;;;5028174;28;45450;-73
2023/01/09 05:37:35;;;;;;;0.80;0.30;;;18.20;69.70;;;;;;5028137;28;45275;-73
2023/01/09 05:40:01;;;;;;;1.00;0.40;;;18.20;69.50;;;;;;5027745;28;46590;-73
2023/01/09 05:42:28;;;;;;;2.45;0.30;;;18.20;69.30;;;;;;5027886;28;45284;-73
2023/01/09 05:44:55;;;;;;;0.73;0.32;;;18.20;69.20;;;;;;5027795;28;45217;-73
2023/01/09 05:47:23;;;;;;;0.47;0.28;;;18.20;68.90;;;;;;5027837;28;45343;-73
2023/01/09 05:49:50;;;;;;;1.02;0.28;;;18.20;68.50;;;;;;5027392;28;46559;-72
2023/01/09 05:52:17;;;;;;;0.47;0.30;;;18.10;68.30;;;;;;5027523;28;45157;-73
2023/01/09 05:54:44;;;;;;;0.80;0.20;;;18.20;68.30;;;;;;5027502;28;45317;-73
2023/01/09 05:57:11;;;;;;;0.80;0.30;;;18.10;68.80;;;;;;5027518;28;45127;-73
2023/01/09 05:59:37;;;;;;;1.95;0.22;;;18.10;68.90;;;;;;5027253;28;45347;-73
2023/01/09 06:02:04;;;;;;;0.85;0.40;;;18.10;68.90;;;;;;5027215;28;46148;-74
2023/01/09 06:04:32;;;;;;;0.30;0.20;;;18.10;68.80;;;;;;5027222;28;45336;-73
2023/01/09 06:06:59;;;;;;;0.73;0.22;;;18.10;68.80;;;;;;5027817;28;45124;-73
2023/01/09 06:09:26;;;;;;;2.03;0.50;;;18.10;68.80;;;;;;5027312;28;47663;-73
2023/01/09 06:11:53;;;;;;;1.40;0.38;;;18.10;68.70;;;;;;5027157;28;45778;-71
2023/01/09 06:14:20;;;;;;;2.08;0.63;;;18.10;68.90;;;;;;5027475;28;45324;-72
2023/01/09 06:16:47;;;;;;;1.20;0.47;;;18.00;68.70;;;;;;5027141;28;45165;-73
2023/01/09 06:19:14;;;;;;;1.42;0.30;;;18.00;68.70;;;;;;5026908;28;47451;-73
2023/01/09 06:21:42;;;;;;;0.40;0.30;;;18.00;68.80;;;;;;5027104;28;45173;-72
2023/01/09 06:24:09;;;;;;;1.00;0.30;;;18.00;68.90;;;;;;5026676;28;45329;-73
2023/01/09 06:29:58;;;;;;;1.00;0.35;;;18.10;68.90;;;;;;5023975;28;45775;-74
2023/01/09 06:32:24;;;;;;;0.57;0.30;;;18.10;68.90;;;;;;5026825;28;45296;-74
2023/01/09 06:34:51;;;;;;;0.98;0.40;;;18.10;68.50;;;;;;5027104;28;45218;-74
2023/01/09 06:40:41;;;;;;;1.38;0.60;;;18.10;68.50;;;;;;5023915;28;45362;-73
2023/01/09 06:43:08;;;;;;;1.70;0.38;;;18.10;68.60;;;;;;5026889;28;46311;-74
2023/01/09 06:45:35;;;;;;;0.93;0.45;;;18.10;68.60;;;;;;5026792;28;45118;-74
2023/01/09 06:48:01;;;;;;;0.50;0.20;;;18.10;68.60;;;;;;5027065;28;45146;-74
2023/01/09 06:53:50;;;;;;;0.95;0.50;;;18.10;68.90;;;;;;5023806;28;45074;-73
2023/01/09 06:56:19;;;;;;;1.30;0.35;;;18.10;68.90;;;;;;5026699;28;45123;-74
2023/01/09 06:58:46;;;;;;;1.48;0.40;;;18.10;68.90;;;;;;5026768;28;45590;-73
2023/01/09 07:01:13;;;;;;;1.88;0.40;;;18.10;68.90;;;;;;5026515;28;45216;-74
2023/01/09 07:03:40;;;;;;;2.40;0.40;;;18.10;69.10;;;;;;5027205;28;45137;-73
2023/01/09 07:06:07;;;;;;;1.23;0.50;;;18.00;69.20;;;;;;5026737;28;45147;-73
2023/01/09 07:12:28;;;;;;;1.33;0.57;;;18.00;69.20;;;;;;5023524;28;45124;-73
2023/01/09 07:14:55;;;;;;;1.17;0.47;;;18.00;69.20;;;;;;5026600;28;45285;-73
2023/01/09 07:17:22;;;;;;;2.08;0.70;;;18.00;69.10;;;;;;5025795;28;45220;-73
2023/01/09 07:19:49;;;;;;;1.25;0.40;;;18.00;69.20;;;;;;5026657;28;45142;-73
2023/01/09 07:22:16;;;;;;;1.55;0.38;;;18.00;69.20;;;;;;5026236;28;45285;-73
2023/01/09 07:24:43;;;;;;;1.60;0.65;;;18.00;69.20;;;;;;5025932;28;45156;-73
2023/01/09 07:27:10;;;;;;;0.52;0.38;;;17.90;69.20;;;;;;5026219;28;45372;-73
2023/01/09 07:29:38;;;;;;;1.42;0.35;;;18.00;69.20;;;;;;5026508;28;45405;-74
2023/01/09 07:32:05;;;;;;;0.55;0.38;;;18.00;69.30;;;;;;5026257;28;46316;-73
2023/01/09 07:34:32;;;;;;;1.50;0.38;;;18.00;69.40;;;;;;5026027;28;45143;-73
2023/01/09 07:36:59;;;;;;;0.75;0.38;;;18.00;69.40;;;;;;5025970;28;45195;-73
2023/01/09 07:39:25;;;;;;;1.15;0.50;;;18.00;69.40;;;;;;5026146;28;45149;-73
2023/01/09 07:41:52;;;;;;;0.98;0.32;;;18.10;69.20;;;;;;5026159;28;47356;-73
2023/01/09 07:44:19;;;;;;;0.85;0.50;;;18.10;69.10;;;;;;5026227;28;45074;-73
2023/01/09 07:46:47;;;;;;;2.15;0.40;;;18.10;69.10;;;;;;5026076;28;45242;-74
2023/01/09 07:49:14;;;;;;;1.02;0.35;;;18.10;68.90;;;;;;5026335;28;45291;-74
2023/01/09 07:51:42;;;;;;;0.65;0.30;;;18.10;68.90;;;;;;5025882;28;47334;-74
2023/01/09 07:54:09;;;;;;;2.75;0.52;;;18.10;69.00;;;;;;5026754;28;45325;-73
2023/01/09 07:56:35;;;;;;;0.70;0.50;;;18.10;68.90;;;;;;5026276;28;45148;-73
2023/01/09 07:59:02;;;;;;;1.08;0.40;;;18.10;69.10;;;;;;5025901;28;45402;-73
2023/01/09 08:01:29;;;;;;;0.80;0.30;;;18.10;68.80;;;;;;5025728;28;46263;-73
2023/01/09 08:03:57;;;;;;;1.10;0.50;;;18.10;68.80;;;;;;5025637;28;45284;-73
2023/01/09 08:06:24;;;;;;;1.60;0.60;;;18.10;68.90;;;;;;5026055;28;45337;-73
2023/01/09 08:08:51;;;;;;;1.55;0.50;;;18.10;69.00;;;;;;5026082;28;45077;-73
2023/01/09 08:11:18;;;;;;;0.50;0.25;;;18.10;68.90;;;;;;5025675;28;45182;-74
2023/01/09 08:13:45;;;;;;;1.08;0.55;;;18.10;68.90;;;;;;5025519;28;45416;-74
2023/01/09 08:16:12;;;;;;;1.33;0.40;;;18.10;68.90;;;;;;5026148;28;45218;-74
2023/01/09 08:18:39;;;;;;;0.40;0.20;;;18.10;68.80;;;;;;5025957;28;45195;-74
2023/01/09 08:21:07;;;;;;;3.55;0.80;;;18.10;68.90;;;;;;5025563;28;48147;-73
2023/01/09 08:23:34;;;;;;;1.55;0.40;;;18.10;69.00;;;;;;5025024;28;45133;-74
2023/01/09 08:26:00;;;;;;;2.63;0.70;;;18.10;69.20;;;;;;5025755;28;45305;-74
2023/01/09 08:28:27;;;;;;;2.42;0.55;;;18.00;69.20;;;;;;5026158;28;45386;-74
2023/01/09 08:30:54;;;;;;;1.42;0.40;;;18.00;69.20;;;;;;5029014;28;46136;-74
2023/01/09 08:33:21;;;;;;;1.17;0.40;;;18.00;69.10;;;;;;5028655;28;45161;-73
2023/01/09 08:35:48;;;;;;;1.35;0.60;;;18.00;69.10;;;;;;5029171;28;45300;-73
2023/01/09 08:38:16;;;;;;;1.27;0.60;;;18.00;69.10;;;;;;5028874;28;45240;-73
2023/01/09 08:40:43;;;;;;;1.92;0.50;;;18.00;68.90;;;;;;5028804;28;46246;-73
2023/01/09 08:48:41;;;;;;;1.20;0.60;;;17.90;68.20;;;;;;5027362;28;45289;-73
2023/01/09 08:51:07;;;;;;;1.75;0.63;;;18.00;67.90;;;;;;5028702;28;46793;-73
2023/01/09 08:53:36;;;;;;;1.83;0.50;;;17.90;67.70;;;;;;5028728;28;45294;-73
2023/01/09 08:56:03;;;;;;;1.15;0.40;;;17.90;67.70;;;;;;5028818;28;45243;-73
2023/01/09 08:58:29;;;;;;;1.08;0.35;;;18.00;67.60;;;;;;5028421;28;45125;-73
2023/01/09 09:00:57;;;;;;;1.05;0.40;;;17.90;67.10;;;;;;5028486;28;48627;-73
2023/01/09 09:03:24;;;;;;;2.67;0.52;;;18.00;67.10;;;;;;5028536;28;45402;-73
2023/01/09 09:05:51;;;;;;;1.52;0.63;;;18.00;67.10;;;;;;5028667;28;45428;-73
2023/01/09 09:08:19;;;;;;;1.80;0.50;;;18.00;67.00;;;;;;5028310;28;45465;-74
2023/01/09 09:10:47;;;;;;;1.42;0.57;;;17.90;67.00;;;;;;5028280;28;47573;-73
2023/01/09 09:13:13;;;;;;;2.15;0.70;;;17.90;66.60;;;;;;5028553;28;45284;-73
2023/01/09 09:15:40;;;;;;;1.42;0.50;;;17.90;66.50;;;;;;5028609;28;45191;-73
2023/01/09 09:18:08;;;;;;;1.50;0.55;;;17.90;66.70;;;;;;5028233;28;45623;-74
2023/01/09 09:20:52;;;;;;;21.30;2.40;;;17.90;66.40;;;;;;5028237;28;47512;-77
2023/01/09 11:06:17;;;;;;;1.35;0.50;;;19.20;68.90;;;;;;5015835;28;45525;-79
2023/01/09 11:08:55;;;;;;;10.68;1.02;;;18.20;68.20;;;;;;5017513;28;45319;-71
2023/01/09 11:11:33;;;;;;;3.70;0.50;;;18.50;70.10;;;;;;5025438;28;48665;-76
2023/01/09 11:14:16;;;;;;;1.70;0.57;;;18.40;69.20;;;;;;5025257;28;45160;-75
2023/01/09 11:16:52;;;;;;;2.97;0.50;;;18.30;68.90;;;;;;5025455;28;45277;-74
2023/01/09 11:19:19;;;;;;;1.13;0.50;;;18.20;68.50;;;;;;5025904;28;45338;-74
2023/01/09 11:21:48;;;;;;;1.83;0.40;;;18.20;68.80;;;;;;5026786;28;46789;-74
2023/01/09 11:24:28;;;;;;;2.50;0.50;;;18.10;70.00;;;;;;5026267;28;45326;-75
2023/01/09 11:27:24;;;;;;;1.30;0.50;;;18.10;69.00;;;;;;5026221;28;45174;-74
2023/01/09 11:30:21;;;;;;;1.75;0.47;;;18.10;68.70;;;;;;5026310;28;45155;-74
2023/01/09 11:32:48;;;;;;;1.38;0.50;;;18.10;68.90;;;;;;5026564;28;47276;-74
2023/01/09 11:38:52;;;;;;;0.95;0.50;;;18.00;68.60;;;;;;5023285;28;45279;-74
2023/01/09 11:41:21;;;;;;;0.90;0.47;;;18.00;68.60;;;;;;5026223;28;45406;-74
2023/01/09 11:43:51;;;;;;;1.88;0.35;;;18.00;68.60;;;;;;5025958;28;45148;-74
2023/01/09 11:46:33;;;;;;;1.05;0.40;;;18.00;68.80;;;;;;5026131;28;45227;-74
2023/01/09 11:49:01;;;;;;;1.17;0.30;;;18.00;68.60;;;;;;5026349;28;45286;-74
2023/01/09 11:51:31;;;;;;;1.08;0.47;;;18.00;68.60;;;;;;5026026;28;45541;-74
2023/01/09 11:54:20;;;;;;;0.25;0.10;;;18.00;68.60;;;;;;5025706;28;47494;-74
2023/01/09 11:56:48;;;;;;;1.55;0.43;;;18.00;68.40;;;;;;5023135;28;45356;-73
2023/01/09 11:59:18;;;;;;;1.45;0.30;;;18.00;68.40;;;;;;5025893;28;45321;-74
2023/01/09 12:02:17;;;;;;;0.32;0.20;;;18.00;68.40;;;;;;5026368;28;45438;-73
2023/01/09 12:04:51;;;;;;;1.73;0.45;;;18.00;68.20;;;;;;5021404;28;48218;-73
2023/01/09 12:07:49;;;;;;;0.70;0.25;;;18.00;68.10;;;;;;5025527;28;45314;-73
2023/01/09 12:10:38;;;;;;;1.85;0.28;;;18.10;67.90;;;;;;5026321;28;45168;-73
2023/01/09 12:13:15;;;;;;;0.68;0.20;;;18.10;67.60;;;;;;5026428;28;45193;-72
2023/01/09 12:19:25;;;;;;;1.38;0.30;;;18.10;67.50;;;;;;5022668;28;45291;-74
2023/01/09 12:22:01;;;;;;;1.17;0.30;;;18.00;67.30;;;;;;5026150;28;45253;-74
2023/01/09 12:24:43;;;;;;;1.92;0.50;;;18.10;67.30;;;;;;5025903;28;45183;-73
2023/01/09 12:27:24;;;;;;;1.42;0.50;;;18.10;67.10;;;;;;5025526;28;45325;-74
2023/01/09 12:30:21;;;;;;;0.95;0.28;;;18.10;66.90;;;;;;5025670;28;45234;-73
2023/01/09 12:33:01;;;;;;;0.60;0.22;;;18.10;67.20;;;;;;5025502;28;45289;-74
2023/01/09 12:38:43;;;;;;;1.05;0.30;;;18.20;68.50;;;;;;4919925;28;46056;-76
2023/01/09 12:41:41;;;;;;;5.25;0.55;;;18.20;70.10;;;;;;5022346;28;45283;-73
2023/01/09 12:44:36;;;;;;;4.20;0.50;;;18.20;70.30;;;;;;5025436;28;45140;-73
2023/01/09 12:47:16;;;;;;;2.00;0.47;;;18.10;69.20;;;;;;5025616;28;45117;-73
2023/01/09 12:49:47;;;;;;;1.83;0.50;;;18.10;69.70;;;;;;5025330;28;46439;-73
2023/01/09 12:52:22;;;;;;;2.22;0.32;;;18.10;70.30;;;;;;5022560;28;45079;-73
2023/01/09 12:58:16;;;;;;;0.68;0.25;;;18.10;71.00;;;;;;5022351;28;45321;-73
2023/01/09 13:00:47;;;;;;;1.15;0.40;;;18.10;71.50;;;;;;5024970;28;46549;-73
2023/01/09 13:03:23;;;;;;;0.98;0.40;;;18.10;71.80;;;;;;5025617;28;45061;-70
2023/01/09 13:05:52;;;;;;;0.60;0.40;;;18.10;72.00;;;;;;5025740;28;45183;-72
2023/01/09 13:08:24;;;;;;;2.47;0.40;;;18.10;72.30;;;;;;5024804;28;45410;-73
2023/01/09 13:10:53;;;;;;;1.17;0.50;;;18.10;72.50;;;;;;5025100;28;45564;-73
2023/01/09 13:13:25;;;;;;;1.15;0.60;;;18.10;72.40;;;;;;5025299;28;45348;-73
2023/01/09 13:15:56;;;;;;;0.45;0.20;;;18.10;72.50;;;;;;5027586;28;45270;-73
2023/01/09 13:18:29;;;;;;;0.88;0.40;;;18.10;72.50;;;;;;5028523;28;45398;-73
2023/01/09 13:20:57;;;;;;;0.85;0.30;;;18.10;72.90;;;;;;5028285;28;45512;-73
2023/01/09 13:23:35;;;;;;;1.27;0.43;;;18.10;73.10;;;;;;5027908;28;45145;-73
2023/01/09 13:26:06;;;;;;;0.57;0.40;;;18.10;73.30;;;;;;5025426;28;45234;-73
2023/01/09 13:28:39;;;;;;;0.77;0.45;;;18.10;73.60;;;;;;5028583;28;45213;-73
2023/01/09 13:31:25;;;;;;;0.95;0.30;;;18.10;73.60;;;;;;5028070;28;46560;-73
2023/01/09 13:33:55;;;;;;;1.55;0.40;;;18.10;72.90;;;;;;5027977;28;45228;-73
2023/01/09 13:36:26;;;;;;;0.63;0.25;;;18.00;73.20;;;;;;5027973;28;45188;-73
2023/01/09 13:38:56;;;;;;;0.30;0.20;;;18.00;73.50;;;;;;5027971;28;45078;-73
2023/01/09 13:44:22;;;;;;;0.95;0.30;;;18.00;74.00;;;;;;5028286;28;45203;-73
2023/01/09 13:46:52;;;;;;;1.52;0.55;;;18.00;74.50;;;;;;5027804;28;45093;-73
2023/01/09 13:52:42;;;;;;;1.48;0.40;;;18.00;74.90;;;;;;5024724;28;45597;-73
2023/01/09 13:55:34;;;;;;;1.30;0.40;;;18.10;74.90;;;;;;5027453;28;45212;-73
2023/01/09 13:58:24;;;;;;;1.10;0.50;;;18.10;75.20;;;;;;5027842;28;45397;-73
2023/01/09 14:01:01;;;;;;;2.15;0.38;;;18.00;75.50;;;;;;5024843;28;45254;-73
2023/01/09 14:03:31;;;;;;;1.42;0.52;;;18.10;75.60;;;;;;5027623;28;46651;-73
2023/01/09 14:06:20;;;;;;;0.30;0.20;;;18.00;75.90;;;;;;5027696;28;45389;-73
2023/01/09 14:08:49;;;;;;;1.35;0.55;;;18.00;77.50;;;;;;5027315;28;45195;-73
2023/01/09 14:11:26;;;;;;;0.73;0.40;;;18.00;76.30;;;;;;5027467;28;45497;-73
2023/01/09 14:14:05;;;;;;;0.40;0.30;;;18.00;76.50;;;;;;5027153;28;46561;-73
2023/01/09 14:16:35;;;;;;;0.75;0.40;;;18.00;76.50;;;;;;5024742;28;45225;-73
2023/01/09 14:19:20;;;;;;;0.40;0.30;;;18.00;76.40;;;;;;5027071;28;45319;-73
2023/01/09 14:21:50;;;;;;;3.13;0.50;;;18.10;76.10;;;;;;5027506;28;45316;-73
2023/01/09 14:24:26;;;;;;;1.35;0.40;;;18.00;76.10;;;;;;5026915;28;48508;-73
2023/01/09 14:26:55;;;;;;;1.42;0.43;;;18.00;76.50;;;;;;5026855;28;45114;-73
2023/01/09 14:29:46;;;;;;;0.50;0.20;;;18.00;76.50;;;;;;5027273;28;45453;-73
2023/01/09 14:32:42;;;;;;;0.75;0.30;;;18.00;76.50;;;;;;5027485;28;45218;-73
2023/01/09 14:35:19;;;;;;;0.65;0.40;;;18.00;76.50;;;;;;5026864;28;46573;-73
2023/01/09 14:38:02;;;;;;;1.08;0.32;;;18.00;76.60;;;;;;5027030;28;45152;-73
2023/01/09 14:40:30;;;;;;;1.25;0.50;;;18.00;76.50;;;;;;5026834;28;45273;-73
2023/01/09 14:43:12;;;;;;;0.80;0.30;;;18.00;76.50;;;;;;5027157;28;45381;-73
2023/01/09 14:45:43;;;;;;;0.50;0.30;;;18.00;75.90;;;;;;5026428;28;48222;-73
2023/01/09 14:48:12;;;;;;;0.50;0.40;;;18.00;76.50;;;;;;5026647;28;45259;-72
2023/01/09 14:50:45;;;;;;;0.32;0.22;;;18.00;76.60;;;;;;5026687;28;45144;-72
2023/01/09 14:53:15;;;;;;;0.50;0.38;;;18.00;77.00;;;;;;5026986;28;45529;-73
2023/01/09 14:55:50;;;;;;;1.95;0.38;;;18.00;76.80;;;;;;5026839;28;46797;-73
2023/01/09 14:58:26;;;;;;;1.08;0.35;;;18.00;77.30;;;;;;5026443;28;45236;-73
2023/01/09 15:00:58;;;;;;;0.90;0.40;;;18.00;77.20;;;;;;5026587;28;45183;-73
2023/01/09 15:03:29;;;;;;;1.38;0.50;;;18.00;77.30;;;;;;5026786;28;45397;-73
2023/01/09 15:05:56;;;;;;;0.68;0.32;;;18.00;77.50;;;;;;5026629;28;48072;-72
2023/01/09 15:08:25;;;;;;;0.57;0.28;;;18.00;77.70;;;;;;5026469;28;45138;-73
2023/01/09 15:10:54;;;;;;;1.45;0.40;;;18.00;77.60;;;;;;5026371;28;45330;-73
2023/01/09 15:13:31;;;;;;;0.38;0.30;;;18.00;77.70;;;;;;5026785;28;45314;-73
2023/01/09 15:15:59;;;;;;;1.58;0.50;;;18.00;78.00;;;;;;5026076;28;46821;-72
2023/01/09 15:18:30;;;;;;;0.40;0.40;;;18.00;77.80;;;;;;5026334;28;45239;-72
2023/01/09 15:21:00;;;;;;;0.63;0.55;;;18.00;77.80;;;;;;5026552;28;45277;-73
2023/01/09 15:23:29;;;;;;;0.75;0.40;;;18.00;77.50;;;;;;5026587;28;45404;-73
2023/01/09 15:25:56;;;;;;;0.90;0.40;;;18.00;77.80;;;;;;5025930;28;46523;-73
2023/01/09 15:28:26;;;;;;;2.25;0.50;;;18.00;78.20;;;;;;5026380;28;45305;-72
2023/01/09 15:31:00;;;;;;;0.47;0.40;;;18.00;78.10;;;;;;5026093;28;45179;-72
2023/01/09 15:33:27;;;;;;;1.30;0.60;;;18.00;78.30;;;;;;5026117;28;45609;-72
2023/01/09 15:35:59;;;;;;;0.50;0.30;;;18.00;78.60;;;;;;5025760;28;46729;-72
2023/01/09 15:38:27;;;;;;;0.93;0.47;;;18.00;78.50;;;;;;5025627;28;45167;-72
2023/01/09 15:40:57;;;;;;;1.23;0.40;;;18.00;78.50;;;;;;5026383;28;45372;-72
2023/01/09 15:43:25;;;;;;;0.88;0.30;;;18.00;78.60;;;;;;5026285;28;45418;-72
2023/01/09 15:45:53;;;;;;;1.33;0.35;;;18.00;80.10;;;;;;5025931;28;47514;-72
2023/01/09 15:48:26;;;;;;;0.77;0.40;;;18.00;78.00;;;;;;5025672;28;45312;-72
2023/01/09 15:50:57;;;;;;;0.80;0.28;;;18.00;78.50;;;;;;5025787;28;45305;-73
2023/01/09 15:53:26;;;;;;;0.73;0.45;;;18.00;78.30;;;;;;5022889;28;45263;-72
2023/01/09 15:56:18;;;;;;;0.30;0.30;;;18.00;78.60;;;;;;5025548;28;47106;-73
2023/01/09 15:58:47;;;;;;;0.60;0.25;;;18.00;78.60;;;;;;5025717;28;45283;-72
2023/01/09 16:01:29;;;;;;;0.82;0.40;;;18.00;78.80;;;;;;5025323;28;45099;-72